sensor_id;sensor_type;location;lat;lon;timestamp;P1;durP1;ratioP1;P2;durP2;ratioP2
42714;SDS011;28351;51.480;5.706;2023-07-30T00:01:19;10.43;;;3.40;;
42714;SDS011;28351;51.480;5.706;2023-07-30T00:03:45;7.88;;;3.15;;
42714;SDS011;28351;51.480;5.706;2023-07-30T00:06:10;11.15;;;4.22;;
42714;SDS011;28351;51.480;5.706;2023-07-30T00:08:36;10.20;;;3.22;;
42714;SDS011;28351;51.480;5.706;2023-07-30T00:11:02;10.82;;;3.05;;
42714;SDS011;28351;51.480;5.706;2023-07-30T00:13:27;6.78;;;3.20;;
42714;SDS011;28351;51.480;5.706;2023-07-30T00:15:53;11.60;;;3.47;;
42714;SDS011;28351;51.480;5.706;2023-07-30T00:18:18;11.38;;;3.42;;
42714;SDS011;28351;51.480;5.706;2023-07-30T00:20:44;8.35;;;3.65;;
42714;SDS011;28351;51.480;5.706;2023-07-30T00:23:10;13.18;;;4.32;;
42714;SDS011;28351;51.480;5.706;2023-07-30T00:25:35;10.93;;;3.85;;
42714;SDS011;28351;51.480;5.706;2023-07-30T00:28:01;13.00;;;3.75;;
42714;SDS011;28351;51.480;5.706;2023-07-30T00:30:26;8.05;;;3.85;;
42714;SDS011;28351;51.480;5.706;2023-07-30T00:32:52;12.25;;;4.60;;
42714;SDS011;28351;51.480;5.706;2023-07-30T00:35:18;11.73;;;4.72;;
42714;SDS011;28351;51.480;5.706;2023-07-30T00:37:43;13.15;;;4.03;;
42714;SDS011;28351;51.480;5.706;2023-07-30T00:40:09;12.13;;;4.25;;
42714;SDS011;28351;51.480;5.706;2023-07-30T00:42:35;9.82;;;4.30;;
42714;SDS011;28351;51.480;5.706;2023-07-30T00:45:01;10.63;;;4.30;;
42714;SDS011;28351;51.480;5.706;2023-07-30T00:47:28;11.88;;;3.92;;
42714;SDS011;28351;51.480;5.706;2023-07-30T00:49:53;9.45;;;3.70;;
42714;SDS011;28351;51.480;5.706;2023-07-30T00:52:20;8.73;;;3.55;;
42714;SDS011;28351;51.480;5.706;2023-07-30T00:54:47;7.85;;;3.97;;
42714;SDS011;28351;51.480;5.706;2023-07-30T00:57:14;11.95;;;3.83;;
42714;SDS011;28351;51.480;5.706;2023-07-30T00:59:41;12.83;;;4.80;;
42714;SDS011;28351;51.480;5.706;2023-07-30T01:02:08;9.07;;;3.97;;
42714;SDS011;28351;51.480;5.706;2023-07-30T01:04:34;9.77;;;3.80;;
42714;SDS011;28351;51.480;5.706;2023-07-30T01:07:02;6.85;;;3.53;;
42714;SDS011;28351;51.480;5.706;2023-07-30T01:09:28;11.68;;;3.67;;
42714;SDS011;28351;51.480;5.706;2023-07-30T01:11:54;10.30;;;4.15;;
42714;SDS011;28351;51.480;5.706;2023-07-30T01:14:20;13.88;;;4.35;;
42714;SDS011;28351;51.480;5.706;2023-07-30T01:16:48;15.65;;;3.65;;
42714;SDS011;28351;51.480;5.706;2023-07-30T01:19:14;10.07;;;4.40;;
42714;SDS011;28351;51.480;5.706;2023-07-30T01:21:39;12.73;;;3.90;;
42714;SDS011;28351;51.480;5.706;2023-07-30T01:24:05;12.20;;;3.78;;
42714;SDS011;28351;51.480;5.706;2023-07-30T01:26:43;11.55;;;3.78;;
42714;SDS011;28351;51.480;5.706;2023-07-30T01:29:12;7.97;;;3.85;;
42714;SDS011;28351;51.480;5.706;2023-07-30T01:31:43;12.65;;;4.20;;
42714;SDS011;28351;51.480;5.706;2023-07-30T01:34:11;10.30;;;3.65;;
42714;SDS011;28351;51.480;5.706;2023-07-30T01:36:38;11.27;;;3.95;;
42714;SDS011;28351;51.480;5.706;2023-07-30T01:39:05;10.38;;;3.63;;
42714;SDS011;28351;51.480;5.706;2023-07-30T01:41:31;12.63;;;3.72;;
42714;SDS011;28351;51.480;5.706;2023-07-30T01:43:57;9.60;;;3.75;;
42714;SDS011;28351;51.480;5.706;2023-07-30T01:46:22;14.50;;;3.60;;
42714;SDS011;28351;51.480;5.706;2023-07-30T01:48:48;14.93;;;3.67;;
42714;SDS011;28351;51.480;5.706;2023-07-30T01:51:14;12.50;;;3.88;;
42714;SDS011;28351;51.480;5.706;2023-07-30T01:53:39;10.02;;;3.47;;
42714;SDS011;28351;51.480;5.706;2023-07-30T01:56:05;11.90;;;4.05;;
42714;SDS011;28351;51.480;5.706;2023-07-30T01:58:30;15.52;;;3.78;;
42714;SDS011;28351;51.480;5.706;2023-07-30T02:00:56;11.00;;;3.83;;
42714;SDS011;28351;51.480;5.706;2023-07-30T02:03:21;9.70;;;3.97;;
42714;SDS011;28351;51.480;5.706;2023-07-30T02:05:47;14.45;;;3.60;;
42714;SDS011;28351;51.480;5.706;2023-07-30T02:08:12;9.35;;;3.67;;
42714;SDS011;28351;51.480;5.706;2023-07-30T02:10:40;15.52;;;4.18;;
42714;SDS011;28351;51.480;5.706;2023-07-30T02:13:06;11.55;;;4.10;;
42714;SDS011;28351;51.480;5.706;2023-07-30T02:15:32;17.60;;;4.10;;
42714;SDS011;28351;51.480;5.706;2023-07-30T02:17:58;13.48;;;3.75;;
42714;SDS011;28351;51.480;5.706;2023-07-30T02:20:23;14.95;;;4.22;;
42714;SDS011;28351;51.480;5.706;2023-07-30T02:22:49;18.25;;;3.95;;
42714;SDS011;28351;51.480;5.706;2023-07-30T02:25:15;10.80;;;3.88;;
42714;SDS011;28351;51.480;5.706;2023-07-30T02:27:40;11.63;;;3.55;;
42714;SDS011;28351;51.480;5.706;2023-07-30T02:30:06;15.77;;;4.05;;
42714;SDS011;28351;51.480;5.706;2023-07-30T02:32:32;11.75;;;3.95;;
42714;SDS011;28351;51.480;5.706;2023-07-30T02:34:57;13.80;;;3.60;;
42714;SDS011;28351;51.480;5.706;2023-07-30T02:37:23;16.63;;;4.10;;
42714;SDS011;28351;51.480;5.706;2023-07-30T02:39:48;16.00;;;3.70;;
42714;SDS011;28351;51.480;5.706;2023-07-30T02:42:14;17.17;;;3.60;;
42714;SDS011;28351;51.480;5.706;2023-07-30T02:44:40;11.60;;;3.80;;
42714;SDS011;28351;51.480;5.706;2023-07-30T02:47:05;16.80;;;3.90;;
42714;SDS011;28351;51.480;5.706;2023-07-30T02:49:31;14.73;;;3.42;;
42714;SDS011;28351;51.480;5.706;2023-07-30T02:51:56;15.23;;;4.38;;
42714;SDS011;28351;51.480;5.706;2023-07-30T02:54:22;17.33;;;4.07;;
42714;SDS011;28351;51.480;5.706;2023-07-30T02:56:48;18.95;;;4.18;;
42714;SDS011;28351;51.480;5.706;2023-07-30T02:59:13;16.33;;;3.80;;
42714;SDS011;28351;51.480;5.706;2023-07-30T03:01:39;18.45;;;4.20;;
42714;SDS011;28351;51.480;5.706;2023-07-30T03:04:04;12.77;;;3.35;;
42714;SDS011;28351;51.480;5.706;2023-07-30T03:06:30;10.80;;;4.00;;
42714;SDS011;28351;51.480;5.706;2023-07-30T03:08:56;18.33;;;4.03;;
42714;SDS011;28351;51.480;5.706;2023-07-30T03:11:22;16.98;;;4.40;;
42714;SDS011;28351;51.480;5.706;2023-07-30T03:13:48;13.02;;;3.50;;
42714;SDS011;28351;51.480;5.706;2023-07-30T03:16:13;21.48;;;4.68;;
42714;SDS011;28351;51.480;5.706;2023-07-30T03:18:39;18.67;;;4.93;;
42714;SDS011;28351;51.480;5.706;2023-07-30T03:21:05;12.50;;;3.92;;
42714;SDS011;28351;51.480;5.706;2023-07-30T03:23:30;16.45;;;4.60;;
42714;SDS011;28351;51.480;5.706;2023-07-30T03:25:56;21.00;;;4.63;;
42714;SDS011;28351;51.480;5.706;2023-07-30T03:28:22;17.52;;;4.53;;
42714;SDS011;28351;51.480;5.706;2023-07-30T03:30:48;18.17;;;4.65;;
42714;SDS011;28351;51.480;5.706;2023-07-30T03:33:14;16.65;;;4.05;;
42714;SDS011;28351;51.480;5.706;2023-07-30T03:35:39;17.50;;;3.92;;
42714;SDS011;28351;51.480;5.706;2023-07-30T03:38:05;19.45;;;3.90;;
42714;SDS011;28351;51.480;5.706;2023-07-30T03:40:31;10.52;;;3.67;;
42714;SDS011;28351;51.480;5.706;2023-07-30T03:42:57;15.30;;;4.32;;
42714;SDS011;28351;51.480;5.706;2023-07-30T03:45:22;16.30;;;4.13;;
42714;SDS011;28351;51.480;5.706;2023-07-30T03:47:48;17.70;;;4.55;;
42714;SDS011;28351;51.480;5.706;2023-07-30T03:50:13;14.43;;;4.00;;
42714;SDS011;28351;51.480;5.706;2023-07-30T03:52:39;19.27;;;4.07;;
42714;SDS011;28351;51.480;5.706;2023-07-30T03:55:04;17.17;;;4.05;;
42714;SDS011;28351;51.480;5.706;2023-07-30T03:57:30;17.85;;;3.90;;
42714;SDS011;28351;51.480;5.706;2023-07-30T03:59:56;20.88;;;4.57;;
42714;SDS011;28351;51.480;5.706;2023-07-30T04:02:21;14.95;;;3.88;;
42714;SDS011;28351;51.480;5.706;2023-07-30T04:04:47;12.05;;;3.50;;
42714;SDS011;28351;51.480;5.706;2023-07-30T04:07:14;20.15;;;4.65;;
42714;SDS011;28351;51.480;5.706;2023-07-30T04:09:40;20.27;;;4.57;;
42714;SDS011;28351;51.480;5.706;2023-07-30T04:12:06;25.75;;;3.90;;
42714;SDS011;28351;51.480;5.706;2023-07-30T04:14:32;17.17;;;4.40;;
42714;SDS011;28351;51.480;5.706;2023-07-30T04:16:57;14.70;;;4.75;;
42714;SDS011;28351;51.480;5.706;2023-07-30T04:19:23;13.90;;;4.18;;
42714;SDS011;28351;51.480;5.706;2023-07-30T04:21:48;17.52;;;4.65;;
42714;SDS011;28351;51.480;5.706;2023-07-30T04:24:14;15.60;;;4.78;;
42714;SDS011;28351;51.480;5.706;2023-07-30T04:26:40;16.10;;;4.38;;
42714;SDS011;28351;51.480;5.706;2023-07-30T04:29:05;21.23;;;5.90;;
42714;SDS011;28351;51.480;5.706;2023-07-30T04:31:31;23.92;;;6.25;;
42714;SDS011;28351;51.480;5.706;2023-07-30T04:33:57;19.42;;;5.72;;
42714;SDS011;28351;51.480;5.706;2023-07-30T04:36:23;19.92;;;6.53;;
42714;SDS011;28351;51.480;5.706;2023-07-30T04:38:49;27.25;;;6.50;;
42714;SDS011;28351;51.480;5.706;2023-07-30T04:41:14;23.17;;;6.05;;
42714;SDS011;28351;51.480;5.706;2023-07-30T04:43:40;24.70;;;6.15;;
42714;SDS011;28351;51.480;5.706;2023-07-30T04:46:06;16.23;;;6.32;;
42714;SDS011;28351;51.480;5.706;2023-07-30T04:48:31;23.45;;;6.55;;
42714;SDS011;28351;51.480;5.706;2023-07-30T04:50:57;21.38;;;7.40;;
42714;SDS011;28351;51.480;5.706;2023-07-30T04:53:22;19.55;;;6.68;;
42714;SDS011;28351;51.480;5.706;2023-07-30T04:55:48;23.27;;;6.70;;
42714;SDS011;28351;51.480;5.706;2023-07-30T04:58:13;24.13;;;7.28;;
42714;SDS011;28351;51.480;5.706;2023-07-30T05:00:39;21.30;;;6.85;;
42714;SDS011;28351;51.480;5.706;2023-07-30T05:03:04;29.35;;;6.90;;
42714;SDS011;28351;51.480;5.706;2023-07-30T05:05:30;33.42;;;7.22;;
42714;SDS011;28351;51.480;5.706;2023-07-30T05:07:56;27.40;;;6.40;;
42714;SDS011;28351;51.480;5.706;2023-07-30T05:10:21;24.17;;;6.47;;
42714;SDS011;28351;51.480;5.706;2023-07-30T05:12:47;30.02;;;6.60;;
42714;SDS011;28351;51.480;5.706;2023-07-30T05:15:12;21.85;;;6.38;;
42714;SDS011;28351;51.480;5.706;2023-07-30T05:17:38;19.85;;;6.10;;
42714;SDS011;28351;51.480;5.706;2023-07-30T05:20:04;20.10;;;6.22;;
42714;SDS011;28351;51.480;5.706;2023-07-30T05:22:30;24.95;;;6.55;;
42714;SDS011;28351;51.480;5.706;2023-07-30T05:24:55;17.80;;;5.57;;
42714;SDS011;28351;51.480;5.706;2023-07-30T05:27:21;21.73;;;6.30;;
42714;SDS011;28351;51.480;5.706;2023-07-30T05:29:47;22.38;;;6.05;;
42714;SDS011;28351;51.480;5.706;2023-07-30T05:32:13;17.13;;;5.25;;
42714;SDS011;28351;51.480;5.706;2023-07-30T05:34:39;20.60;;;5.80;;
42714;SDS011;28351;51.480;5.706;2023-07-30T05:37:05;17.08;;;5.55;;
42714;SDS011;28351;51.480;5.706;2023-07-30T05:39:30;21.85;;;6.28;;
42714;SDS011;28351;51.480;5.706;2023-07-30T05:41:56;28.17;;;5.80;;
42714;SDS011;28351;51.480;5.706;2023-07-30T05:44:22;22.95;;;5.63;;
42714;SDS011;28351;51.480;5.706;2023-07-30T05:46:47;22.67;;;5.25;;
42714;SDS011;28351;51.480;5.706;2023-07-30T05:49:13;20.50;;;5.68;;
42714;SDS011;28351;51.480;5.706;2023-07-30T05:51:39;20.08;;;5.53;;
42714;SDS011;28351;51.480;5.706;2023-07-30T05:54:05;23.00;;;5.15;;
42714;SDS011;28351;51.480;5.706;2023-07-30T05:56:30;21.45;;;6.47;;
42714;SDS011;28351;51.480;5.706;2023-07-30T05:58:56;23.42;;;5.93;;
42714;SDS011;28351;51.480;5.706;2023-07-30T06:01:22;25.95;;;6.07;;
42714;SDS011;28351;51.480;5.706;2023-07-30T06:03:47;22.33;;;5.13;;
42714;SDS011;28351;51.480;5.706;2023-07-30T06:06:13;18.95;;;6.03;;
42714;SDS011;28351;51.480;5.706;2023-07-30T06:08:39;27.95;;;5.57;;
42714;SDS011;28351;51.480;5.706;2023-07-30T06:11:05;19.20;;;5.35;;
42714;SDS011;28351;51.480;5.706;2023-07-30T06:13:30;23.38;;;6.30;;
42714;SDS011;28351;51.480;5.706;2023-07-30T06:15:56;20.83;;;6.13;;
42714;SDS011;28351;51.480;5.706;2023-07-30T06:18:22;16.02;;;4.95;;
42714;SDS011;28351;51.480;5.706;2023-07-30T06:20:47;19.27;;;5.28;;
42714;SDS011;28351;51.480;5.706;2023-07-30T06:23:13;24.25;;;5.28;;
42714;SDS011;28351;51.480;5.706;2023-07-30T06:25:38;22.58;;;5.35;;
42714;SDS011;28351;51.480;5.706;2023-07-30T06:28:04;25.00;;;5.72;;
42714;SDS011;28351;51.480;5.706;2023-07-30T06:30:31;22.00;;;5.10;;
42714;SDS011;28351;51.480;5.706;2023-07-30T06:32:57;27.77;;;5.40;;
42714;SDS011;28351;51.480;5.706;2023-07-30T06:35:23;26.30;;;5.28;;
42714;SDS011;28351;51.480;5.706;2023-07-30T06:37:50;27.50;;;5.60;;
42714;SDS011;28351;51.480;5.706;2023-07-30T06:40:16;28.42;;;7.03;;
42714;SDS011;28351;51.480;5.706;2023-07-30T06:42:41;26.50;;;5.15;;
42714;SDS011;28351;51.480;5.706;2023-07-30T06:45:07;21.65;;;6.05;;
42714;SDS011;28351;51.480;5.706;2023-07-30T06:47:33;24.70;;;5.85;;
42714;SDS011;28351;51.480;5.706;2023-07-30T06:49:59;28.92;;;5.93;;
42714;SDS011;28351;51.480;5.706;2023-07-30T06:52:24;19.77;;;5.25;;
42714;SDS011;28351;51.480;5.706;2023-07-30T06:54:50;24.65;;;6.10;;
42714;SDS011;28351;51.480;5.706;2023-07-30T06:57:16;20.58;;;5.45;;
42714;SDS011;28351;51.480;5.706;2023-07-30T06:59:41;23.40;;;5.20;;
42714;SDS011;28351;51.480;5.706;2023-07-30T07:02:07;25.50;;;5.78;;
42714;SDS011;28351;51.480;5.706;2023-07-30T07:04:32;23.17;;;4.85;;
42714;SDS011;28351;51.480;5.706;2023-07-30T07:06:58;20.08;;;4.45;;
42714;SDS011;28351;51.480;5.706;2023-07-30T07:09:24;18.13;;;4.45;;
42714;SDS011;28351;51.480;5.706;2023-07-30T07:11:49;23.17;;;4.40;;
42714;SDS011;28351;51.480;5.706;2023-07-30T07:14:15;23.27;;;5.28;;
42714;SDS011;28351;51.480;5.706;2023-07-30T07:16:41;17.30;;;4.28;;
42714;SDS011;28351;51.480;5.706;2023-07-30T07:19:06;23.25;;;4.60;;
42714;SDS011;28351;51.480;5.706;2023-07-30T07:21:32;20.65;;;4.47;;
42714;SDS011;28351;51.480;5.706;2023-07-30T07:23:57;13.63;;;3.70;;
42714;SDS011;28351;51.480;5.706;2023-07-30T07:26:23;18.48;;;4.80;;
42714;SDS011;28351;51.480;5.706;2023-07-30T07:28:48;17.58;;;4.03;;
42714;SDS011;28351;51.480;5.706;2023-07-30T07:31:14;17.75;;;3.67;;
42714;SDS011;28351;51.480;5.706;2023-07-30T07:33:40;18.58;;;3.30;;
42714;SDS011;28351;51.480;5.706;2023-07-30T07:36:06;24.17;;;4.60;;
42714;SDS011;28351;51.480;5.706;2023-07-30T07:38:33;19.52;;;3.67;;
42714;SDS011;28351;51.480;5.706;2023-07-30T07:41:01;24.75;;;3.33;;
42714;SDS011;28351;51.480;5.706;2023-07-30T07:43:27;23.95;;;3.47;;
42714;SDS011;28351;51.480;5.706;2023-07-30T07:45:52;15.02;;;3.30;;
42714;SDS011;28351;51.480;5.706;2023-07-30T07:48:18;20.65;;;3.85;;
42714;SDS011;28351;51.480;5.706;2023-07-30T07:50:44;19.25;;;3.78;;
42714;SDS011;28351;51.480;5.706;2023-07-30T07:53:10;17.23;;;3.08;;
42714;SDS011;28351;51.480;5.706;2023-07-30T07:55:36;18.45;;;3.65;;
42714;SDS011;28351;51.480;5.706;2023-07-30T07:58:02;18.15;;;3.50;;
42714;SDS011;28351;51.480;5.706;2023-07-30T08:00:27;20.80;;;3.55;;
42714;SDS011;28351;51.480;5.706;2023-07-30T08:02:53;15.75;;;3.10;;
42714;SDS011;28351;51.480;5.706;2023-07-30T08:05:18;19.67;;;2.95;;
42714;SDS011;28351;51.480;5.706;2023-07-30T08:07:49;21.85;;;3.20;;
42714;SDS011;28351;51.480;5.706;2023-07-30T08:10:15;14.90;;;2.83;;
42714;SDS011;28351;51.480;5.706;2023-07-30T08:12:41;13.35;;;2.25;;
42714;SDS011;28351;51.480;5.706;2023-07-30T08:15:07;23.88;;;2.80;;
42714;SDS011;28351;51.480;5.706;2023-07-30T08:17:33;12.95;;;2.55;;
42714;SDS011;28351;51.480;5.706;2023-07-30T08:19:58;13.07;;;2.67;;
42714;SDS011;28351;51.480;5.706;2023-07-30T08:22:24;20.63;;;2.67;;
42714;SDS011;28351;51.480;5.706;2023-07-30T08:24:49;21.80;;;2.72;;
42714;SDS011;28351;51.480;5.706;2023-07-30T08:27:15;14.27;;;2.47;;
42714;SDS011;28351;51.480;5.706;2023-07-30T08:29:40;17.60;;;2.83;;
42714;SDS011;28351;51.480;5.706;2023-07-30T08:32:06;16.83;;;2.08;;
42714;SDS011;28351;51.480;5.706;2023-07-30T08:34:32;14.55;;;2.22;;
42714;SDS011;28351;51.480;5.706;2023-07-30T08:36:57;21.58;;;2.50;;
42714;SDS011;28351;51.480;5.706;2023-07-30T08:39:23;10.45;;;2.00;;
42714;SDS011;28351;51.480;5.706;2023-07-30T08:41:48;14.23;;;2.70;;
42714;SDS011;28351;51.480;5.706;2023-07-30T08:44:14;12.57;;;2.20;;
42714;SDS011;28351;51.480;5.706;2023-07-30T08:46:40;15.07;;;3.03;;
42714;SDS011;28351;51.480;5.706;2023-07-30T08:49:05;13.40;;;2.17;;
42714;SDS011;28351;51.480;5.706;2023-07-30T08:51:31;12.60;;;2.50;;
42714;SDS011;28351;51.480;5.706;2023-07-30T08:53:59;15.10;;;1.60;;
42714;SDS011;28351;51.480;5.706;2023-07-30T08:56:26;13.95;;;2.25;;
42714;SDS011;28351;51.480;5.706;2023-07-30T08:58:52;9.02;;;2.13;;
42714;SDS011;28351;51.480;5.706;2023-07-30T09:01:22;9.38;;;1.92;;
42714;SDS011;28351;51.480;5.706;2023-07-30T09:03:52;17.88;;;4.15;;
42714;SDS011;28351;51.480;5.706;2023-07-30T09:06:18;9.75;;;2.20;;
42714;SDS011;28351;51.480;5.706;2023-07-30T09:08:44;17.60;;;2.42;;
42714;SDS011;28351;51.480;5.706;2023-07-30T09:11:10;9.10;;;2.13;;
42714;SDS011;28351;51.480;5.706;2023-07-30T09:13:39;11.43;;;1.88;;
42714;SDS011;28351;51.480;5.706;2023-07-30T09:16:13;14.05;;;2.00;;
42714;SDS011;28351;51.480;5.706;2023-07-30T09:18:40;17.98;;;1.90;;
42714;SDS011;28351;51.480;5.706;2023-07-30T09:21:06;8.23;;;2.08;;
42714;SDS011;28351;51.480;5.706;2023-07-30T09:23:31;7.25;;;1.80;;
42714;SDS011;28351;51.480;5.706;2023-07-30T09:25:57;11.48;;;1.90;;
42714;SDS011;28351;51.480;5.706;2023-07-30T09:28:30;11.18;;;1.98;;
42714;SDS011;28351;51.480;5.706;2023-07-30T09:31:02;15.73;;;2.05;;
42714;SDS011;28351;51.480;5.706;2023-07-30T09:33:32;12.80;;;2.03;;
42714;SDS011;28351;51.480;5.706;2023-07-30T09:36:00;7.93;;;1.70;;
42714;SDS011;28351;51.480;5.706;2023-07-30T09:38:27;7.38;;;1.75;;
42714;SDS011;28351;51.480;5.706;2023-07-30T09:40:59;14.75;;;2.42;;
42714;SDS011;28351;51.480;5.706;2023-07-30T09:43:29;6.93;;;1.73;;
42714;SDS011;28351;51.480;5.706;2023-07-30T09:46:01;4.85;;;1.50;;
42714;SDS011;28351;51.480;5.706;2023-07-30T09:48:28;10.93;;;1.90;;
42714;SDS011;28351;51.480;5.706;2023-07-30T09:50:59;12.23;;;1.73;;
42714;SDS011;28351;51.480;5.706;2023-07-30T09:53:28;7.85;;;1.63;;
42714;SDS011;28351;51.480;5.706;2023-07-30T09:55:55;8.97;;;2.10;;
42714;SDS011;28351;51.480;5.706;2023-07-30T09:58:20;10.88;;;2.03;;
42714;SDS011;28351;51.480;5.706;2023-07-30T10:00:46;6.82;;;1.58;;
42714;SDS011;28351;51.480;5.706;2023-07-30T10:03:14;6.27;;;1.27;;
42714;SDS011;28351;51.480;5.706;2023-07-30T10:05:41;8.43;;;1.63;;
42714;SDS011;28351;51.480;5.706;2023-07-30T10:08:12;11.88;;;1.38;;
42714;SDS011;28351;51.480;5.706;2023-07-30T10:10:44;4.28;;;1.25;;
42714;SDS011;28351;51.480;5.706;2023-07-30T10:13:10;7.65;;;1.55;;
42714;SDS011;28351;51.480;5.706;2023-07-30T10:15:38;7.32;;;1.10;;
42714;SDS011;28351;51.480;5.706;2023-07-30T10:18:04;4.82;;;1.10;;
42714;SDS011;28351;51.480;5.706;2023-07-30T10:20:30;10.65;;;1.35;;
42714;SDS011;28351;51.480;5.706;2023-07-30T10:22:58;7.55;;;1.35;;
42714;SDS011;28351;51.480;5.706;2023-07-30T10:25:46;7.78;;;1.50;;
42714;SDS011;28351;51.480;5.706;2023-07-30T10:31:02;3.80;;;1.00;;
42714;SDS011;28351;51.480;5.706;2023-07-30T10:34:11;13.15;;;1.52;;
42714;SDS011;28351;51.480;5.706;2023-07-30T10:37:03;8.70;;;1.48;;
42714;SDS011;28351;51.480;5.706;2023-07-30T10:39:15;8.18;;;1.80;;
42714;SDS011;28351;51.480;5.706;2023-07-30T10:41:43;8.85;;;2.17;;
42714;SDS011;28351;51.480;5.706;2023-07-30T10:44:21;7.90;;;1.90;;
42714;SDS011;28351;51.480;5.706;2023-07-30T10:46:56;7.82;;;1.35;;
42714;SDS011;28351;51.480;5.706;2023-07-30T10:49:23;8.57;;;1.70;;
42714;SDS011;28351;51.480;5.706;2023-07-30T10:51:53;7.03;;;1.60;;
42714;SDS011;28351;51.480;5.706;2023-07-30T10:54:20;6.85;;;1.67;;
42714;SDS011;28351;51.480;5.706;2023-07-30T10:56:47;4.70;;;1.35;;
42714;SDS011;28351;51.480;5.706;2023-07-30T10:59:13;15.43;;;1.95;;
42714;SDS011;28351;51.480;5.706;2023-07-30T11:01:40;6.95;;;1.23;;
42714;SDS011;28351;51.480;5.706;2023-07-30T11:09:22;6.72;;;0.93;;
42714;SDS011;28351;51.480;5.706;2023-07-30T11:11:50;5.38;;;0.88;;
42714;SDS011;28351;51.480;5.706;2023-07-30T11:14:17;6.32;;;1.33;;
42714;SDS011;28351;51.480;5.706;2023-07-30T11:16:54;5.57;;;1.02;;
42714;SDS011;28351;51.480;5.706;2023-07-30T11:19:23;4.72;;;1.45;;
42714;SDS011;28351;51.480;5.706;2023-07-30T11:21:50;3.30;;;0.82;;
42714;SDS011;28351;51.480;5.706;2023-07-30T11:24:17;7.10;;;1.40;;
42714;SDS011;28351;51.480;5.706;2023-07-30T11:26:43;3.70;;;0.93;;
42714;SDS011;28351;51.480;5.706;2023-07-30T11:31:44;8.10;;;1.10;;
42714;SDS011;28351;51.480;5.706;2023-07-30T11:34:11;9.55;;;1.15;;
42714;SDS011;28351;51.480;5.706;2023-07-30T11:36:41;4.18;;;0.60;;
42714;SDS011;28351;51.480;5.706;2023-07-30T11:39:07;6.13;;;0.73;;
42714;SDS011;28351;51.480;5.706;2023-07-30T11:41:34;10.75;;;1.60;;
42714;SDS011;28351;51.480;5.706;2023-07-30T11:44:01;4.30;;;1.30;;
42714;SDS011;28351;51.480;5.706;2023-07-30T11:46:27;7.80;;;1.25;;
42714;SDS011;28351;51.480;5.706;2023-07-30T11:49:09;9.20;;;1.60;;
42714;SDS011;28351;51.480;5.706;2023-07-30T11:51:40;6.57;;;1.80;;
42714;SDS011;28351;51.480;5.706;2023-07-30T11:54:06;8.68;;;1.90;;
42714;SDS011;28351;51.480;5.706;2023-07-30T11:56:33;5.18;;;1.52;;
42714;SDS011;28351;51.480;5.706;2023-07-30T11:58:59;5.97;;;1.30;;
42714;SDS011;28351;51.480;5.706;2023-07-30T12:01:35;6.85;;;1.33;;
42714;SDS011;28351;51.480;5.706;2023-07-30T12:04:02;5.63;;;1.33;;
42714;SDS011;28351;51.480;5.706;2023-07-30T12:06:42;11.60;;;1.50;;
42714;SDS011;28351;51.480;5.706;2023-07-30T12:09:12;7.45;;;1.27;;
42714;SDS011;28351;51.480;5.706;2023-07-30T12:11:52;5.85;;;1.55;;
42714;SDS011;28351;51.480;5.706;2023-07-30T12:14:22;6.15;;;1.45;;
42714;SDS011;28351;51.480;5.706;2023-07-30T12:17:08;4.88;;;1.27;;
42714;SDS011;28351;51.480;5.706;2023-07-30T12:19:33;4.85;;;0.93;;
42714;SDS011;28351;51.480;5.706;2023-07-30T12:22:01;2.70;;;1.23;;
42714;SDS011;28351;51.480;5.706;2023-07-30T12:24:27;3.42;;;0.90;;
42714;SDS011;28351;51.480;5.706;2023-07-30T12:26:52;4.40;;;0.82;;
42714;SDS011;28351;51.480;5.706;2023-07-30T12:29:18;2.05;;;0.80;;
42714;SDS011;28351;51.480;5.706;2023-07-30T12:31:44;5.47;;;0.70;;
42714;SDS011;28351;51.480;5.706;2023-07-30T12:34:11;5.47;;;1.10;;
42714;SDS011;28351;51.480;5.706;2023-07-30T12:36:37;3.72;;;0.80;;
42714;SDS011;28351;51.480;5.706;2023-07-30T12:39:03;3.38;;;0.68;;
42714;SDS011;28351;51.480;5.706;2023-07-30T12:41:28;3.05;;;0.75;;
42714;SDS011;28351;51.480;5.706;2023-07-30T12:43:55;5.95;;;0.65;;
42714;SDS011;28351;51.480;5.706;2023-07-30T12:46:22;1.50;;;0.60;;
42714;SDS011;28351;51.480;5.706;2023-07-30T12:48:48;3.70;;;1.10;;
42714;SDS011;28351;51.480;5.706;2023-07-30T12:51:13;6.38;;;1.30;;
42714;SDS011;28351;51.480;5.706;2023-07-30T12:53:39;4.80;;;1.10;;
42714;SDS011;28351;51.480;5.706;2023-07-30T12:56:05;6.15;;;1.58;;
42714;SDS011;28351;51.480;5.706;2023-07-30T12:58:30;10.60;;;2.05;;
42714;SDS011;28351;51.480;5.706;2023-07-30T13:00:56;7.13;;;1.80;;
42714;SDS011;28351;51.480;5.706;2023-07-30T13:03:21;4.05;;;1.30;;
42714;SDS011;28351;51.480;5.706;2023-07-30T13:05:47;5.85;;;2.03;;
42714;SDS011;28351;51.480;5.706;2023-07-30T13:08:13;3.03;;;0.85;;
42714;SDS011;28351;51.480;5.706;2023-07-30T13:10:38;3.10;;;0.95;;
42714;SDS011;28351;51.480;5.706;2023-07-30T13:13:04;3.42;;;0.70;;
42714;SDS011;28351;51.480;5.706;2023-07-30T13:15:29;1.42;;;0.77;;
42714;SDS011;28351;51.480;5.706;2023-07-30T13:17:55;2.97;;;0.80;;
42714;SDS011;28351;51.480;5.706;2023-07-30T13:20:20;2.97;;;0.60;;
42714;SDS011;28351;51.480;5.706;2023-07-30T13:22:46;5.28;;;1.13;;
42714;SDS011;28351;51.480;5.706;2023-07-30T13:25:12;3.25;;;0.80;;
42714;SDS011;28351;51.480;5.706;2023-07-30T13:27:37;1.20;;;0.50;;
42714;SDS011;28351;51.480;5.706;2023-07-30T13:30:03;5.47;;;0.95;;
42714;SDS011;28351;51.480;5.706;2023-07-30T13:32:29;6.07;;;1.00;;
42714;SDS011;28351;51.480;5.706;2023-07-30T13:34:55;4.55;;;0.68;;
42714;SDS011;28351;51.480;5.706;2023-07-30T13:37:20;4.13;;;0.93;;
42714;SDS011;28351;51.480;5.706;2023-07-30T13:39:46;5.00;;;0.85;;
42714;SDS011;28351;51.480;5.706;2023-07-30T13:42:11;5.47;;;0.77;;
42714;SDS011;28351;51.480;5.706;2023-07-30T13:44:37;4.28;;;0.70;;
42714;SDS011;28351;51.480;5.706;2023-07-30T13:47:03;3.20;;;0.63;;
42714;SDS011;28351;51.480;5.706;2023-07-30T13:49:28;6.07;;;0.50;;
42714;SDS011;28351;51.480;5.706;2023-07-30T13:51:54;2.42;;;0.70;;
42714;SDS011;28351;51.480;5.706;2023-07-30T13:54:20;3.67;;;0.90;;
42714;SDS011;28351;51.480;5.706;2023-07-30T13:56:45;2.33;;;0.70;;
42714;SDS011;28351;51.480;5.706;2023-07-30T13:59:11;1.50;;;0.50;;
42714;SDS011;28351;51.480;5.706;2023-07-30T14:01:36;2.45;;;0.55;;
42714;SDS011;28351;51.480;5.706;2023-07-30T14:04:02;4.10;;;0.73;;
42714;SDS011;28351;51.480;5.706;2023-07-30T14:06:28;4.35;;;0.52;;
42714;SDS011;28351;51.480;5.706;2023-07-30T14:08:54;4.75;;;0.70;;
42714;SDS011;28351;51.480;5.706;2023-07-30T14:11:19;3.10;;;0.68;;
42714;SDS011;28351;51.480;5.706;2023-07-30T14:13:45;1.15;;;0.40;;
42714;SDS011;28351;51.480;5.706;2023-07-30T14:16:11;3.53;;;0.70;;
42714;SDS011;28351;51.480;5.706;2023-07-30T14:18:36;3.53;;;0.95;;
42714;SDS011;28351;51.480;5.706;2023-07-30T14:21:04;3.58;;;0.75;;
42714;SDS011;28351;51.480;5.706;2023-07-30T14:23:29;2.08;;;0.68;;
42714;SDS011;28351;51.480;5.706;2023-07-30T14:25:55;3.65;;;0.70;;
42714;SDS011;28351;51.480;5.706;2023-07-30T14:28:21;4.90;;;0.90;;
42714;SDS011;28351;51.480;5.706;2023-07-30T14:30:46;4.38;;;0.95;;
42714;SDS011;28351;51.480;5.706;2023-07-30T14:33:12;3.35;;;0.88;;
42714;SDS011;28351;51.480;5.706;2023-07-30T14:35:38;2.35;;;0.60;;
42714;SDS011;28351;51.480;5.706;2023-07-30T14:38:04;9.48;;;1.00;;
42714;SDS011;28351;51.480;5.706;2023-07-30T14:40:30;4.72;;;1.38;;
42714;SDS011;28351;51.480;5.706;2023-07-30T14:42:57;5.88;;;1.10;;
42714;SDS011;28351;51.480;5.706;2023-07-30T14:45:22;3.33;;;0.88;;